sensor_id;sensor_type;location;lat;lon;timestamp;pressure;altitude;pressure_sealevel;temperature;humidity
20350;BME280;10332;50.208;18.988;2023-02-23T00:02:06;98106.31;;;2.81;85.73
20350;BME280;10332;50.208;18.988;2023-02-23T00:04:34;98108.09;;;2.79;85.89
20350;BME280;10332;50.208;18.988;2023-02-23T00:07:03;98110.84;;;2.74;86.16
20350;BME280;10332;50.208;18.988;2023-02-23T00:09:32;98109.88;;;2.77;86.20
20350;BME280;10332;50.208;18.988;2023-02-23T00:12:05;98109.78;;;2.80;85.93
20350;BME280;10332;50.208;18.988;2023-02-23T00:14:37;98107.56;;;2.71;86.19
20350;BME280;10332;50.208;18.988;2023-02-23T00:17:06;98101.81;;;2.63;86.72
20350;BME280;10332;50.208;18.988;2023-02-23T00:19:41;98109.72;;;2.58;87.18
20350;BME280;10332;50.208;18.988;2023-02-23T00:22:10;98096.09;;;2.54;87.46
20350;BME280;10332;50.208;18.988;2023-02-23T00:24:38;98101.31;;;2.53;87.58
20350;BME280;10332;50.208;18.988;2023-02-23T00:27:09;98100.56;;;2.49;87.71
20350;BME280;10332;50.208;18.988;2023-02-23T00:29:38;98100.75;;;2.45;87.94
20350;BME280;10332;50.208;18.988;2023-02-23T00:32:07;98100.81;;;2.43;87.92
20350;BME280;10332;50.208;18.988;2023-02-23T00:34:35;98099.63;;;2.52;87.91
20350;BME280;10332;50.208;18.988;2023-02-23T00:37:03;98097.59;;;2.60;87.38
20350;BME280;10332;50.208;18.988;2023-02-23T00:39:30;98098.81;;;2.50;87.64
20350;BME280;10332;50.208;18.988;2023-02-23T00:41:58;98096.19;;;2.51;87.62
20350;BME280;10332;50.208;18.988;2023-02-23T00:44:30;98098.00;;;2.49;87.46
20350;BME280;10332;50.208;18.988;2023-02-23T00:47:00;98105.84;;;2.46;87.50
20350;BME280;10332;50.208;18.988;2023-02-23T00:49:28;98103.38;;;2.43;87.71
20350;BME280;10332;50.208;18.988;2023-02-23T00:51:55;98100.47;;;2.52;87.16
20350;BME280;10332;50.208;18.988;2023-02-23T00:54:24;98100.63;;;2.48;87.13
20350;BME280;10332;50.208;18.988;2023-02-23T00:56:51;98102.56;;;2.41;87.26
20350;BME280;10332;50.208;18.988;2023-02-23T00:59:19;98106.41;;;2.54;86.59
20350;BME280;10332;50.208;18.988;2023-02-23T01:01:47;98096.53;;;2.42;86.91
20350;BME280;10332;50.208;18.988;2023-02-23T01:04:14;98099.16;;;2.41;86.73
20350;BME280;10332;50.208;18.988;2023-02-23T01:06:42;98097.09;;;2.50;86.23
20350;BME280;10332;50.208;18.988;2023-02-23T01:09:14;98093.16;;;2.40;86.27
20350;BME280;10332;50.208;18.988;2023-02-23T01:11:47;98098.22;;;2.43;85.96
20350;BME280;10332;50.208;18.988;2023-02-23T01:14:15;98102.56;;;2.41;85.62
20350;BME280;10332;50.208;18.988;2023-02-23T01:16:42;98100.84;;;2.42;85.86
20350;BME280;10332;50.208;18.988;2023-02-23T01:19:10;98099.00;;;2.45;85.13
20350;BME280;10332;50.208;18.988;2023-02-23T01:21:41;98090.72;;;2.37;85.62
20350;BME280;10332;50.208;18.988;2023-02-23T01:24:10;98087.09;;;2.43;85.10
20350;BME280;10332;50.208;18.988;2023-02-23T01:26:42;98093.66;;;2.26;85.06
20350;BME280;10332;50.208;18.988;2023-02-23T01:29:16;98085.34;;;2.43;84.51
20350;BME280;10332;50.208;18.988;2023-02-23T01:31:47;98082.19;;;2.35;84.60
20350;BME280;10332;50.208;18.988;2023-02-23T01:34:15;98085.41;;;2.17;85.15
20350;BME280;10332;50.208;18.988;2023-02-23T01:36:44;98074.44;;;2.12;85.68
20350;BME280;10332;50.208;18.988;2023-02-23T01:39:16;98073.69;;;2.08;85.89
20350;BME280;10332;50.208;18.988;2023-02-23T01:41:44;98062.44;;;2.11;85.75
20350;BME280;10332;50.208;18.988;2023-02-23T01:46:45;98061.88;;;2.27;85.25
20350;BME280;10332;50.208;18.988;2023-02-23T01:49:19;98065.28;;;2.28;84.75
20350;BME280;10332;50.208;18.988;2023-02-23T01:51:55;98057.03;;;2.18;85.19
20350;BME280;10332;50.208;18.988;2023-02-23T01:54:31;98049.41;;;2.15;85.32
20350;BME280;10332;50.208;18.988;2023-02-23T01:57:05;98046.69;;;2.20;85.46
20350;BME280;10332;50.208;18.988;2023-02-23T01:59:40;98045.25;;;2.11;85.72
20350;BME280;10332;50.208;18.988;2023-02-23T02:02:10;98045.41;;;2.07;86.01
20350;BME280;10332;50.208;18.988;2023-02-23T02:04:42;98042.63;;;2.13;85.55
20350;BME280;10332;50.208;18.988;2023-02-23T02:07:17;98047.97;;;2.08;85.49
20350;BME280;10332;50.208;18.988;2023-02-23T02:09:46;98048.31;;;1.97;86.01
20350;BME280;10332;50.208;18.988;2023-02-23T02:12:33;98046.78;;;1.92;86.51
20350;BME280;10332;50.208;18.988;2023-02-23T02:15:04;98038.81;;;1.99;86.21
20350;BME280;10332;50.208;18.988;2023-02-23T02:17:48;98040.59;;;1.97;86.22
20350;BME280;10332;50.208;18.988;2023-02-23T02:30:13;98032.34;;;1.88;86.52
20350;BME280;10332;50.208;18.988;2023-02-23T02:39:25;98030.66;;;1.87;86.65
20350;BME280;10332;50.208;18.988;2023-02-23T02:42:29;98030.06;;;1.79;87.04
20350;BME280;10332;50.208;18.988;2023-02-23T02:47:46;98023.06;;;1.84;86.97
20350;BME280;10332;50.208;18.988;2023-02-23T02:50:37;98026.78;;;1.75;87.58
20350;BME280;10332;50.208;18.988;2023-02-23T02:53:10;98021.91;;;1.92;86.75
20350;BME280;10332;50.208;18.988;2023-02-23T02:55:42;98024.03;;;1.80;87.31
20350;BME280;10332;50.208;18.988;2023-02-23T02:58:11;98019.53;;;1.86;87.19
20350;BME280;10332;50.208;18.988;2023-02-23T03:00:41;98014.50;;;1.83;87.18
20350;BME280;10332;50.208;18.988;2023-02-23T03:03:41;98019.78;;;1.79;87.68
20350;BME280;10332;50.208;18.988;2023-02-23T03:06:42;98022.28;;;1.82;87.43
20350;BME280;10332;50.208;18.988;2023-02-23T03:16:42;98023.94;;;1.83;87.82
20350;BME280;10332;50.208;18.988;2023-02-23T03:23:10;98018.22;;;1.75;88.09
20350;BME280;10332;50.208;18.988;2023-02-23T03:26:40;98006.03;;;1.80;87.65
20350;BME280;10332;50.208;18.988;2023-02-23T03:32:35;98014.56;;;1.82;87.66
20350;BME280;10332;50.208;18.988;2023-02-23T03:35:38;98025.78;;;1.53;88.65
20350;BME280;10332;50.208;18.988;2023-02-23T03:38:48;98013.53;;;1.61;88.71
20350;BME280;10332;50.208;18.988;2023-02-23T03:41:41;98021.84;;;1.69;88.53
20350;BME280;10332;50.208;18.988;2023-02-23T03:44:40;98025.69;;;1.82;88.25
20350;BME280;10332;50.208;18.988;2023-02-23T03:47:33;98026.06;;;1.70;88.03
20350;BME280;10332;50.208;18.988;2023-02-23T03:50:38;98024.72;;;1.60;88.67
20350;BME280;10332;50.208;18.988;2023-02-23T03:53:35;98021.94;;;1.66;88.56
20350;BME280;10332;50.208;18.988;2023-02-23T03:56:27;98028.25;;;1.57;88.94
20350;BME280;10332;50.208;18.988;2023-02-23T03:59:20;98026.97;;;1.69;88.59
20350;BME280;10332;50.208;18.988;2023-02-23T04:02:10;98030.38;;;1.69;88.36
20350;BME280;10332;50.208;18.988;2023-02-23T04:05:05;98020.31;;;1.63;88.51
20350;BME280;10332;50.208;18.988;2023-02-23T04:07:53;98027.50;;;1.54;88.82
20350;BME280;10332;50.208;18.988;2023-02-23T04:10:49;98026.66;;;1.53;88.95
20350;BME280;10332;50.208;18.988;2023-02-23T04:13:40;98022.75;;;1.41;89.26
20350;BME280;10332;50.208;18.988;2023-02-23T04:16:11;98024.28;;;1.47;89.54
20350;BME280;10332;50.208;18.988;2023-02-23T04:18:40;98018.94;;;1.53;89.42
20350;BME280;10332;50.208;18.988;2023-02-23T04:21:08;98021.53;;;1.52;89.36
20350;BME280;10332;50.208;18.988;2023-02-23T04:23:38;98021.53;;;1.52;89.55
20350;BME280;10332;50.208;18.988;2023-02-23T04:26:07;98017.66;;;1.40;89.72
20350;BME280;10332;50.208;18.988;2023-02-23T04:28:35;98023.53;;;1.43;89.86
20350;BME280;10332;50.208;18.988;2023-02-23T04:31:02;98020.09;;;1.45;89.85
20350;BME280;10332;50.208;18.988;2023-02-23T04:33:30;98017.53;;;1.45;89.67
20350;BME280;10332;50.208;18.988;2023-02-23T04:35:57;98010.66;;;1.43;89.78
20350;BME280;10332;50.208;18.988;2023-02-23T04:38:25;98009.41;;;1.30;90.19
20350;BME280;10332;50.208;18.988;2023-02-23T04:40:52;98013.34;;;1.40;90.12
20350;BME280;10332;50.208;18.988;2023-02-23T04:43:19;98008.06;;;1.45;90.17
20350;BME280;10332;50.208;18.988;2023-02-23T04:45:47;98003.81;;;1.44;89.59
20350;BME280;10332;50.208;18.988;2023-02-23T04:48:14;97999.34;;;1.49;89.71
20350;BME280;10332;50.208;18.988;2023-02-23T04:50:42;98004.38;;;1.52;89.46
20350;BME280;10332;50.208;18.988;2023-02-23T04:53:09;98000.38;;;1.43;89.58
20350;BME280;10332;50.208;18.988;2023-02-23T04:55:36;98005.50;;;1.45;89.69
20350;BME280;10332;50.208;18.988;2023-02-23T04:58:04;98007.25;;;1.45;89.95
20350;BME280;10332;50.208;18.988;2023-02-23T05:00:32;98006.03;;;1.55;89.41
20350;BME280;10332;50.208;18.988;2023-02-23T05:03:00;98005.38;;;1.48;89.52
20350;BME280;10332;50.208;18.988;2023-02-23T05:05:28;98003.41;;;1.56;89.39
20350;BME280;10332;50.208;18.988;2023-02-23T05:07:56;98011.13;;;1.56;89.20
20350;BME280;10332;50.208;18.988;2023-02-23T05:10:23;98010.38;;;1.53;89.43
20350;BME280;10332;50.208;18.988;2023-02-23T05:12:51;98016.31;;;1.55;89.20
20350;BME280;10332;50.208;18.988;2023-02-23T05:15:18;98009.19;;;1.63;88.87
20350;BME280;10332;50.208;18.988;2023-02-23T05:17:46;98010.81;;;1.65;88.87
20350;BME280;10332;50.208;18.988;2023-02-23T05:20:14;98004.00;;;1.64;88.90
20350;BME280;10332;50.208;18.988;2023-02-23T05:22:42;98007.34;;;1.66;88.95
20350;BME280;10332;50.208;18.988;2023-02-23T05:25:09;98003.41;;;1.56;88.93
20350;BME280;10332;50.208;18.988;2023-02-23T05:27:39;98004.19;;;1.58;89.11
20350;BME280;10332;50.208;18.988;2023-02-23T05:30:07;98007.00;;;1.51;89.09
20350;BME280;10332;50.208;18.988;2023-02-23T05:32:36;98009.53;;;1.52;89.35
20350;BME280;10332;50.208;18.988;2023-02-23T05:35:04;98011.19;;;1.55;89.27
20350;BME280;10332;50.208;18.988;2023-02-23T05:37:31;98012.28;;;1.48;89.37
20350;BME280;10332;50.208;18.988;2023-02-23T05:39:59;98008.97;;;1.44;89.45
20350;BME280;10332;50.208;18.988;2023-02-23T05:42:27;98005.50;;;1.45;89.90
20350;BME280;10332;50.208;18.988;2023-02-23T05:44:54;98012.41;;;1.43;89.89
20350;BME280;10332;50.208;18.988;2023-02-23T05:47:22;98013.34;;;1.40;89.98
20350;BME280;10332;50.208;18.988;2023-02-23T05:49:49;98007.91;;;1.50;90.00
20350;BME280;10332;50.208;18.988;2023-02-23T05:52:17;98019.16;;;1.47;90.09
20350;BME280;10332;50.208;18.988;2023-02-23T05:54:44;98016.25;;;1.56;89.78
20350;BME280;10332;50.208;18.988;2023-02-23T05:57:13;98022.19;;;1.58;89.50
20350;BME280;10332;50.208;18.988;2023-02-23T05:59:40;98022.84;;;1.65;89.54
20350;BME280;10332;50.208;18.988;2023-02-23T06:02:07;98015.66;;;1.75;89.08
20350;BME280;10332;50.208;18.988;2023-02-23T06:04:35;98017.22;;;1.79;88.76
20350;BME280;10332;50.208;18.988;2023-02-23T06:07:03;98016.75;;;1.92;88.16
20350;BME280;10332;50.208;18.988;2023-02-23T06:09:30;98015.91;;;1.92;88.63
20350;BME280;10332;50.208;18.988;2023-02-23T06:11:57;98022.00;;;1.89;88.10
20350;BME280;10332;50.208;18.988;2023-02-23T06:14:26;98023.63;;;1.92;87.96
20350;BME280;10332;50.208;18.988;2023-02-23T06:16:54;98026.72;;;2.02;88.00
20350;BME280;10332;50.208;18.988;2023-02-23T06:19:21;98032.28;;;2.14;87.39
20350;BME280;10332;50.208;18.988;2023-02-23T06:21:49;98027.69;;;2.22;87.23
20350;BME280;10332;50.208;18.988;2023-02-23T06:24:16;98033.06;;;2.40;86.67
20350;BME280;10332;50.208;18.988;2023-02-23T06:26:45;98036.28;;;2.46;86.21
20350;BME280;10332;50.208;18.988;2023-02-23T06:29:12;98031.63;;;2.56;85.60
20350;BME280;10332;50.208;18.988;2023-02-23T06:31:40;98033.16;;;2.62;85.13
20350;BME280;10332;50.208;18.988;2023-02-23T06:34:09;98030.50;;;2.63;85.10
20350;BME280;10332;50.208;18.988;2023-02-23T06:36:37;98029.88;;;2.80;84.96
20350;BME280;10332;50.208;18.988;2023-02-23T06:39:05;98035.75;;;3.05;84.74
20350;BME280;10332;50.208;18.988;2023-02-23T06:41:32;98038.09;;;3.11;83.91
20350;BME280;10332;50.208;18.988;2023-02-23T06:44:00;98038.47;;;3.24;83.48
20350;BME280;10332;50.208;18.988;2023-02-23T06:46:27;98026.94;;;3.33;83.06
20350;BME280;10332;50.208;18.988;2023-02-23T06:48:56;98034.81;;;3.50;82.16
20350;BME280;10332;50.208;18.988;2023-02-23T06:51:24;98043.63;;;3.66;81.68
20350;BME280;10332;50.208;18.988;2023-02-23T06:53:52;98035.09;;;3.85;81.01
20350;BME280;10332;50.208;18.988;2023-02-23T06:56:20;98036.16;;;4.01;80.44
20350;BME280;10332;50.208;18.988;2023-02-23T06:58:47;98041.56;;;4.15;80.00
20350;BME280;10332;50.208;18.988;2023-02-23T07:01:15;98044.38;;;4.30;79.49
20350;BME280;10332;50.208;18.988;2023-02-23T07:03:43;98046.50;;;4.40;78.79
20350;BME280;10332;50.208;18.988;2023-02-23T07:06:11;98042.53;;;4.52;77.77
20350;BME280;10332;50.208;18.988;2023-02-23T07:08:38;98036.31;;;4.75;76.98
20350;BME280;10332;50.208;18.988;2023-02-23T07:11:12;98040.66;;;4.93;76.70
20350;BME280;10332;50.208;18.988;2023-02-23T07:13:41;98040.09;;;5.05;76.06
20350;BME280;10332;50.208;18.988;2023-02-23T07:16:09;98041.19;;;5.19;75.29
20350;BME280;10332;50.208;18.988;2023-02-23T07:18:37;98032.06;;;5.29;74.64
20350;BME280;10332;50.208;18.988;2023-02-23T07:21:05;98036.81;;;5.38;74.25
20350;BME280;10332;50.208;18.988;2023-02-23T07:23:33;98035.00;;;5.40;73.76
20350;BME280;10332;50.208;18.988;2023-02-23T07:26:00;98042.72;;;5.59;73.17
20350;BME280;10332;50.208;18.988;2023-02-23T07:28:28;98041.88;;;5.76;72.90
20350;BME280;10332;50.208;18.988;2023-02-23T07:30:57;98040.59;;;5.84;71.84
20350;BME280;10332;50.208;18.988;2023-02-23T07:33:24;98035.56;;;5.98;71.33
20350;BME280;10332;50.208;18.988;2023-02-23T07:35:52;98031.38;;;6.13;70.97
20350;BME280;10332;50.208;18.988;2023-02-23T07:38:19;98027.56;;;6.03;69.59
20350;BME280;10332;50.208;18.988;2023-02-23T07:40:49;98028.41;;;6.21;70.02
20350;BME280;10332;50.208;18.988;2023-02-23T07:43:17;98029.41;;;6.34;69.17
20350;BME280;10332;50.208;18.988;2023-02-23T07:45:48;98036.53;;;6.46;68.27
20350;BME280;10332;50.208;18.988;2023-02-23T07:48:18;98030.25;;;6.68;67.65
20350;BME280;10332;50.208;18.988;2023-02-23T07:50:47;98033.00;;;6.80;67.23
20350;BME280;10332;50.208;18.988;2023-02-23T07:53:14;98034.50;;;7.00;67.24
20350;BME280;10332;50.208;18.988;2023-02-23T07:55:42;98030.53;;;7.10;65.73
20350;BME280;10332;50.208;18.988;2023-02-23T07:58:09;98026.19;;;7.41;65.60
20350;BME280;10332;50.208;18.988;2023-02-23T08:00:39;98028.66;;;7.74;64.78
20350;BME280;10332;50.208;18.988;2023-02-23T08:03:07;98021.16;;;7.98;63.58
20350;BME280;10332;50.208;18.988;2023-02-23T08:05:35;98014.16;;;8.29;62.78
20350;BME280;10332;50.208;18.988;2023-02-23T08:08:06;98023.75;;;8.42;62.06
20350;BME280;10332;50.208;18.988;2023-02-23T08:10:33;98018.31;;;8.88;61.38
20350;BME280;10332;50.208;18.988;2023-02-23T08:13:01;98017.16;;;9.33;59.80
20350;BME280;10332;50.208;18.988;2023-02-23T08:15:29;98012.22;;;9.95;58.09
20350;BME280;10332;50.208;18.988;2023-02-23T08:17:57;98019.84;;;10.11;56.08
20350;BME280;10332;50.208;18.988;2023-02-23T08:20:25;98012.09;;;10.86;55.17
20350;BME280;10332;50.208;18.988;2023-02-23T08:22:54;98020.63;;;11.49;53.20
20350;BME280;10332;50.208;18.988;2023-02-23T08:25:23;98019.97;;;11.82;51.94
20350;BME280;10332;50.208;18.988;2023-02-23T08:27:50;98014.72;;;12.39;50.43
20350;BME280;10332;50.208;18.988;2023-02-23T08:30:22;98017.22;;;13.08;48.90
20350;BME280;10332;50.208;18.988;2023-02-23T08:32:50;98010.69;;;13.46;47.90
20350;BME280;10332;50.208;18.988;2023-02-23T08:35:18;98021.78;;;14.23;45.44
20350;BME280;10332;50.208;18.988;2023-02-23T08:37:46;98011.03;;;14.47;43.61
20350;BME280;10332;50.208;18.988;2023-02-23T08:40:14;98025.38;;;15.14;43.61
20350;BME280;10332;50.208;18.988;2023-02-23T08:42:42;98020.22;;;15.62;41.77
20350;BME280;10332;50.208;18.988;2023-02-23T08:45:11;98020.75;;;15.56;42.22
20350;BME280;10332;50.208;18.988;2023-02-23T08:47:38;98021.13;;;15.32;42.06
20350;BME280;10332;50.208;18.988;2023-02-23T08:50:06;98017.22;;;14.67;42.15
20350;BME280;10332;50.208;18.988;2023-02-23T08:52:37;98010.06;;;14.27;43.31
20350;BME280;10332;50.208;18.988;2023-02-23T08:55:06;98009.47;;;13.82;44.27
20350;BME280;10332;50.208;18.988;2023-02-23T08:57:36;98005.63;;;13.65;44.91
20350;BME280;10332;50.208;18.988;2023-02-23T09:00:05;98002.34;;;13.52;44.97
20350;BME280;10332;50.208;18.988;2023-02-23T09:02:44;97998.91;;;13.72;44.21
20350;BME280;10332;50.208;18.988;2023-02-23T09:05:15;97984.03;;;13.94;43.24
20350;BME280;10332;50.208;18.988;2023-02-23T09:07:44;97988.06;;;14.28;43.50
20350;BME280;10332;50.208;18.988;2023-02-23T09:10:15;97986.59;;;15.06;42.56
20350;BME280;10332;50.208;18.988;2023-02-23T09:12:43;97992.75;;;15.45;41.74
20350;BME280;10332;50.208;18.988;2023-02-23T09:15:11;98001.47;;;16.13;40.56
20350;BME280;10332;50.208;18.988;2023-02-23T09:17:38;98005.50;;;16.64;39.28
20350;BME280;10332;50.208;18.988;2023-02-23T09:20:10;98002.56;;;17.85;38.06
20350;BME280;10332;50.208;18.988;2023-02-23T09:22:43;98003.97;;;18.15;36.93
20350;BME280;10332;50.208;18.988;2023-02-23T09:25:20;98001.06;;;18.53;35.80
20350;BME280;10332;50.208;18.988;2023-02-23T09:27:52;98005.59;;;18.34;35.96
20350;BME280;10332;50.208;18.988;2023-02-23T09:30:20;98002.13;;;18.42;36.07
20350;BME280;10332;50.208;18.988;2023-02-23T09:32:53;98002.38;;;17.69;36.86
20350;BME280;10332;50.208;18.988;2023-02-23T09:35:23;98000.38;;;17.99;37.31
20350;BME280;10332;50.208;18.988;2023-02-23T09:37:54;97998.75;;;18.06;35.75
20350;BME280;10332;50.208;18.988;2023-02-23T09:40:29;97996.06;;;18.76;34.76
20350;BME280;10332;50.208;18.988;2023-02-23T09:43:19;97994.13;;;18.60;35.42
20350;BME280;10332;50.208;18.988;2023-02-23T09:46:31;98001.00;;;19.13;34.73
20350;BME280;10332;50.208;18.988;2023-02-23T09:49:00;97997.69;;;19.11;35.38
20350;BME280;10332;50.208;18.988;2023-02-23T09:51:31;98000.72;;;19.24;34.64
20350;BME280;10332;50.208;18.988;2023-02-23T09:54:06;97999.19;;;19.80;34.72
20350;BME280;10332;50.208;18.988;2023-02-23T09:56:43;97995.84;;;20.27;33.25
20350;BME280;10332;50.208;18.988;2023-02-23T09:59:16;97995.22;;;21.28;33.04
20350;BME280;10332;50.208;18.988;2023-02-23T10:04:43;97994.41;;;21.19;32.64
20350;BME280;10332;50.208;18.988;2023-02-23T10:14:04;98002.22;;;23.74;29.75
20350;BME280;10332;50.208;18.988;2023-02-23T10:16:44;97994.84;;;24.88;27.95
20350;BME280;10332;50.208;18.988;2023-02-23T10:22:01;97998.31;;;24.48;27.53
20350;BME280;10332;50.208;18.988;2023-02-23T10:24:38;98001.63;;;23.79;28.66
20350;BME280;10332;50.208;18.988;2023-02-23T10:27:17;97997.06;;;23.94;28.25
20350;BME280;10332;50.208;18.988;2023-02-23T10:29:57;98000.50;;;23.16;28.74
20350;BME280;10332;50.208;18.988;2023-02-23T10:32:38;97993.44;;;22.20;29.43
20350;BME280;10332;50.208;18.988;2023-02-23T10:35:15;97995.31;;;21.42;30.22
20350;BME280;10332;50.208;18.988;2023-02-23T10:37:44;97993.53;;;21.35;30.85
20350;BME280;10332;50.208;18.988;2023-02-23T10:40:22;97992.25;;;21.76;30.65
20350;BME280;10332;50.208;18.988;2023-02-23T10:42:56;97987.03;;;22.06;30.41
20350;BME280;10332;50.208;18.988;2023-02-23T10:45:27;97977.41;;;23.38;29.28
20350;BME280;10332;50.208;18.988;2023-02-23T10:48:01;97976.50;;;22.94;29.46
20350;BME280;10332;50.208;18.988;2023-02-23T10:50:36;97977.84;;;22.76;29.60
20350;BME280;10332;50.208;18.988;2023-02-23T10:53:24;97971.41;;;22.26;30.00
20350;BME280;10332;50.208;18.988;2023-02-23T10:56:17;97970.25;;;21.82;30.56
20350;BME280;10332;50.208;18.988;2023-02-23T11:01:35;97959.69;;;21.74;30.87
20350;BME280;10332;50.208;18.988;2023-02-23T11:04:24;97956.06;;;22.13;30.01
20350;BME280;10332;50.208;18.988;2023-02-23T11:07:18;97954.81;;;22.53;29.85
20350;BME280;10332;50.208;18.988;2023-02-23T11:09:47;97950.22;;;22.32;30.38
20350;BME280;10332;50.208;18.988;2023-02-23T11:12:39;97942.97;;;22.41;30.31
20350;BME280;10332;50.208;18.988;2023-02-23T11:18:24;97938.59;;;21.96;30.99
20350;BME280;10332;50.208;18.988;2023-02-23T11:20:52;97931.50;;;21.50;31.07
20350;BME280;10332;50.208;18.988;2023-02-23T11:23:24;97937.91;;;21.56;31.46
20350;BME280;10332;50.208;18.988;2023-02-23T11:26:03;97939.50;;;21.65;32.14
20350;BME280;10332;50.208;18.988;2023-02-23T11:28:40;97937.56;;;20.66;31.97
20350;BME280;10332;50.208;18.988;2023-02-23T11:31:29;97932.94;;;19.64;32.97
20350;BME280;10332;50.208;18.988;2023-02-23T11:34:03;97933.59;;;19.66;33.43
20350;BME280;10332;50.208;18.988;2023-02-23T11:36:35;97920.50;;;20.13;32.76
20350;BME280;10332;50.208;18.988;2023-02-23T11:39:17;97928.28;;;19.41;33.85
20350;BME280;10332;50.208;18.988;2023-02-23T11:41:45;97931.00;;;18.91;34.58
20350;BME280;10332;50.208;18.988;2023-02-23T11:44:22;97926.28;;;18.34;35.10
20350;BME280;10332;50.208;18.988;2023-02-23T11:46:50;97921.84;;;17.83;35.80
20350;BME280;10332;50.208;18.988;2023-02-23T11:49:31;97920.44;;;17.71;36.39
20350;BME280;10332;50.208;18.988;2023-02-23T11:52:02;97921.31;;;17.79;36.50
20350;BME280;10332;50.208;18.988;2023-02-23T11:54:33;97916.28;;;17.94;36.21
20350;BME280;10332;50.208;18.988;2023-02-23T11:57:01;97918.72;;;17.87;36.88
20350;BME280;10332;50.208;18.988;2023-02-23T11:59:38;97915.50;;;17.58;36.80
20350;BME280;10332;50.208;18.988;2023-02-23T12:04:46;97905.53;;;17.52;37.81
20350;BME280;10332;50.208;18.988;2023-02-23T12:07:45;97909.50;;;17.12;37.97
20350;BME280;10332;50.208;18.988;2023-02-23T12:10:35;97912.38;;;16.73;38.64
20350;BME280;10332;50.208;18.988;2023-02-23T12:13:25;97905.91;;;16.58;39.00
20350;BME280;10332;50.208;18.988;2023-02-23T12:21:50;97905.31;;;15.90;40.39
20350;BME280;10332;50.208;18.988;2023-02-23T12:24:41;97894.56;;;15.83;40.75
20350;BME280;10332;50.208;18.988;2023-02-23T12:27:24;97894.78;;;15.90;41.22
20350;BME280;10332;50.208;18.988;2023-02-23T12:30:08;97890.97;;;15.75;41.90
20350;BME280;10332;50.208;18.988;2023-02-23T12:42:05;97869.69;;;15.29;42.78
20350;BME280;10332;50.208;18.988;2023-02-23T12:47:43;97859.44;;;15.17;43.59
20350;BME280;10332;50.208;18.988;2023-02-23T12:51:04;97861.94;;;15.28;42.98
20350;BME280;10332;50.208;18.988;2023-02-23T12:53:28;97858.44;;;14.79;44.05
20350;BME280;10332;50.208;18.988;2023-02-23T12:59:12;97843.47;;;14.51;44.96
20350;BME280;10332;50.208;18.988;2023-02-23T13:01:57;97844.03;;;14.73;45.31
20350;BME280;10332;50.208;18.988;2023-02-23T13:05:11;97835.50;;;15.20;44.74
20350;BME280;10332;50.208;18.988;2023-02-23T13:11:24;97835.25;;;16.16;42.50
20350;BME280;10332;50.208;18.988;2023-02-23T13:14:20;97830.81;;;17.25;41.50
20350;BME280;10332;50.208;18.988;2023-02-23T13:17:30;97831.03;;;18.10;39.21
20350;BME280;10332;50.208;18.988;2023-02-23T13:23:04;97817.06;;;18.84;38.68
20350;BME280;10332;50.208;18.988;2023-02-23T13:31:01;97815.44;;;18.41;38.39
20350;BME280;10332;50.208;18.988;2023-02-23T13:33:34;97812.16;;;18.05;39.19
20350;BME280;10332;50.208;18.988;2023-02-23T13:36:11;97812.19;;;17.79;39.63
20350;BME280;10332;50.208;18.988;2023-02-23T13:44:42;97799.34;;;17.58;40.12
20350;BME280;10332;50.208;18.988;2023-02-23T13:47:42;97798.63;;;17.48;40.44
20350;BME280;10332;50.208;18.988;2023-02-23T13:52:53;97799.63;;;17.73;40.45
20350;BME280;10332;50.208;18.988;2023-02-23T13:58:10;97795.94;;;17.92;40.28
20350;BME280;10332;50.208;18.988;2023-02-23T14:00:42;97793.72;;;17.61;40.61
20350;BME280;10332;50.208;18.988;2023-02-23T14:03:27;97784.97;;;17.52;40.54
20350;BME280;10332;50.208;18.988;2023-02-23T14:06:00;97779.38;;;17.55;40.80
20350;BME280;10332;50.208;18.988;2023-02-23T14:08:36;97786.28;;;17.30;41.15
20350;BME280;10332;50.208;18.988;2023-02-23T14:11:05;97774.88;;;17.04;41.55
20350;BME280;10332;50.208;18.988;2023-02-23T14:13:57;97782.56;;;16.80;42.14
20350;BME280;10332;50.208;18.988;2023-02-23T14:16:26;97776.03;;;16.84;42.50
20350;BME280;10332;50.208;18.988;2023-02-23T14:21:57;97778.59;;;16.93;42.24
20350;BME280;10332;50.208;18.988;2023-02-23T14:24:26;97774.16;;;16.94;42.28
20350;BME280;10332;50.208;18.988;2023-02-23T14:29:43;97770.69;;;16.93;42.52
20350;BME280;10332;50.208;18.988;2023-02-23T14:32:29;97766.69;;;16.89;42.64
20350;BME280;10332;50.208;18.988;2023-02-23T14:35:00;97772.00;;;16.71;43.35
20350;BME280;10332;50.208;18.988;2023-02-23T14:37:34;97767.56;;;16.44;43.35
20350;BME280;10332;50.208;18.988;2023-02-23T14:40:17;97772.44;;;16.22;43.82
20350;BME280;10332;50.208;18.988;2023-02-23T14:42:52;97766.66;;;16.08;44.01
20350;BME280;10332;50.208;18.988;2023-02-23T14:45:30;97765.16;;;15.78;44.63
20350;BME280;10332;50.208;18.988;2023-02-23T14:48:06;97763.00;;;15.64;44.87
20350;BME280;10332;50.208;18.988;2023-02-23T14:50:36;97771.63;;;15.47;45.86
20350;BME280;10332;50.208;18.988;2023-02-23T14:53:18;97761.72;;;15.21;46.26
20350;BME280;10332;50.208;18.988;2023-02-23T14:55:47;97762.28;;;15.15;46.45
20350;BME280;10332;50.208;18.988;2023-02-23T14:58:30;97751.25;;;15.02;46.67
20350;BME280;10332;50.208;18.988;2023-02-23T15:00:59;97754.97;;;14.80;47.70
20350;BME280;10332;50.208;18.988;2023-02-23T15:03:27;97752.34;;;14.70;48.16
20350;BME280;10332;50.208;18.988;2023-02-23T15:05:59;97751.25;;;14.54;48.75
20350;BME280;10332;50.208;18.988;2023-02-23T15:08:30;97749.53;;;14.24;49.75
20350;BME280;10332;50.208;18.988;2023-02-23T15:11:03;97748.53;;;14.05;50.25
20350;BME280;10332;50.208;18.988;2023-02-23T15:13:36;97739.66;;;13.97;50.74
20350;BME280;10332;50.208;18.988;2023-02-23T15:16:11;97736.44;;;13.83;51.48
20350;BME280;10332;50.208;18.988;2023-02-23T15:18:43;97746.34;;;13.70;51.97